KCDW/CDW METAR and TAF weather

Enter ICAO airport designator
Station Type Date Time Source
KCDW METAR 2020/01/26 18:53 UTC NOAA

KCDW 261853Z 28007G15KT 10SM OVC045 07/M02 A2976 RMK AO2 SLP084 T00721017


Station Type Date Time Source
KCDW Decoded METAR 2020/01/26 18:53 UTC NOAA

CALDWELL ESSEX COUNTY AIRPORT , NJ, United States (KCDW) 40-53N 074-17W 64M
Jan 26, 2020 - 01:53 PM EST / 2020.01.26 1853 UTC
Wind: from the W (280 degrees) at 8 MPH (7 KT) gusting to 17 MPH (15 KT):0
Visibility: 10 mile(s):0
Sky conditions: overcast
Temperature: 45.0 F (7.2 C)
Dew Point: 28.9 F (-1.7 C)
Relative Humidity: 53%
Pressure (altimeter): 29.76 in. Hg (1007 hPa)
ob: KCDW 261853Z 28007G15KT 10SM OVC045 07/M02 A2976 RMK AO2 SLP084 T00721017
cycle: 19

Station Type Date Time Source
KCDW TAF UTC NOAA

Error!

Example: see airport list